Time;durP1;ratioP1;P1;durP2;ratioP2;P2;SDS_P1;SDS_P2;PMS_P1;PMS_P2;Temp;Humidity;BMP_temperature;BMP_pressure;BME280_temperature;BME280_humidity;BME280_pressure;Samples;Min_cycle;Max_cycle;Signal;HPM_P1;HPM_P2
2022/02/21 00:01:03;;;;;;;11.65;2.95;;;6.20;99.90;;;;;;5071511;28;20048;-71
2022/02/21 00:03:30;;;;;;;8.93;1.60;;;6.10;99.90;;;;;;5072898;28;20581;-71
2022/02/21 00:05:55;;;;;;;9.55;2.38;;;6.00;99.90;;;;;;5073146;28;20040;-71
2022/02/21 00:08:21;;;;;;;7.90;1.55;;;5.90;99.90;;;;;;5072874;28;20072;-70
2022/02/21 00:10:48;;;;;;;5.65;1.80;;;5.90;99.90;;;;;;5072979;28;20047;-71
2022/02/21 00:13:13;;;;;;;10.38;2.05;;;5.80;99.90;;;;;;5072857;28;20379;-71
2022/02/21 00:15:39;;;;;;;6.38;1.70;;;5.90;99.90;;;;;;5072782;28;20029;-71
2022/02/21 00:18:05;;;;;;;11.85;2.22;;;5.90;99.90;;;;;;5072650;28;20090;-71
2022/02/21 00:20:30;;;;;;;10.18;2.92;;;5.80;99.90;;;;;;5073027;28;20116;-70
2022/02/21 00:22:56;;;;;;;17.67;3.25;;;5.90;99.90;;;;;;5072750;28;20078;-71
2022/02/21 00:25:21;;;;;;;21.70;4.65;;;5.80;99.90;;;;;;5072788;28;20040;-71
2022/02/21 00:27:47;;;;;;;10.77;3.83;;;5.80;99.90;;;;;;5072875;28;20044;-70
2022/02/21 00:30:13;;;;;;;23.02;3.45;;;5.90;99.90;;;;;;5072588;28;20478;-70
2022/02/21 00:32:38;;;;;;;23.13;3.70;;;5.80;99.90;;;;;;5072241;28;20045;-71
2022/02/21 00:35:04;;;;;;;22.02;3.78;;;5.90;99.90;;;;;;5072459;28;20146;-70
2022/02/21 00:37:30;;;;;;;19.67;3.63;;;5.90;99.90;;;;;;5054666;28;20386;-71
2022/02/21 00:39:56;;;;;;;22.63;4.00;;;5.90;99.90;;;;;;5072615;28;20047;-71
2022/02/21 00:42:22;;;;;;;18.92;3.45;;;5.90;99.90;;;;;;5070923;28;20536;-70
2022/02/21 00:44:56;;;;;;;19.40;3.75;;;6.00;99.90;;;;;;5072394;28;20048;-70
2022/02/21 00:47:26;;;;;;;15.23;3.33;;;5.90;99.90;;;;;;5072558;28;20028;-70
2022/02/21 00:49:53;;;;;;;16.17;3.95;;;5.90;99.90;;;;;;5072463;28;20082;-70
2022/02/21 00:52:19;;;;;;;20.23;4.00;;;5.90;99.90;;;;;;5072102;28;20133;-71
2022/02/21 00:54:45;;;;;;;15.20;4.07;;;6.00;99.90;;;;;;5072259;28;20033;-71
2022/02/21 00:57:11;;;;;;;21.35;3.97;;;6.10;99.90;;;;;;5072035;28;20059;-71
2022/02/21 00:59:37;;;;;;;16.75;4.68;;;6.10;99.90;;;;;;5072002;28;20037;-70
2022/02/21 01:02:03;;;;;;;28.45;6.35;;;6.10;99.90;;;;;;5071628;28;20036;-71
2022/02/21 01:04:28;;;;;;;17.63;3.55;;;6.10;99.90;;;;;;5072015;28;20537;-70
2022/02/21 01:06:55;;;;;;;19.77;3.78;;;6.10;99.90;;;;;;5072045;28;20040;-71
2022/02/21 01:09:21;;;;;;;18.90;3.95;;;6.10;99.90;;;;;;5071819;28;20457;-71
2022/02/21 01:11:47;;;;;;;26.08;5.78;;;6.10;99.90;;;;;;5071814;28;20498;-70
2022/02/21 01:14:12;;;;;;;17.83;4.80;;;6.10;99.90;;;;;;5071075;28;20039;-71
2022/02/21 01:16:38;;;;;;;23.60;5.30;;;6.10;99.90;;;;;;5072026;28;20111;-71
2022/02/21 01:19:04;;;;;;;27.30;5.75;;;6.20;99.90;;;;;;5072141;28;20045;-71
2022/02/21 01:21:29;;;;;;;24.73;4.88;;;6.10;99.90;;;;;;5071712;28;20051;-71
2022/02/21 01:23:55;;;;;;;19.55;4.05;;;6.00;99.90;;;;;;5071781;28;20048;-70
2022/02/21 01:26:22;;;;;;;23.90;6.22;;;5.90;99.90;;;;;;5071648;28;20037;-70
2022/02/21 01:28:48;;;;;;;22.38;4.72;;;5.90;99.90;;;;;;5071602;28;20048;-71
2022/02/21 01:31:13;;;;;;;21.00;4.45;;;5.90;99.90;;;;;;5070433;28;20049;-71
2022/02/21 01:33:39;;;;;;;23.15;6.00;;;6.00;99.90;;;;;;5071845;28;20059;-71
2022/02/21 01:36:04;;;;;;;21.10;4.60;;;5.90;99.90;;;;;;5071741;28;20032;-71
2022/02/21 01:38:30;;;;;;;20.67;4.97;;;5.90;99.90;;;;;;5071767;28;20036;-71
2022/02/21 01:40:55;;;;;;;21.52;5.15;;;5.90;99.90;;;;;;5071348;28;20037;-71
2022/02/21 01:43:21;;;;;;;24.98;4.70;;;5.90;99.90;;;;;;5070465;28;20064;-71
2022/02/21 01:45:46;;;;;;;25.73;4.72;;;6.00;99.90;;;;;;5071687;28;20474;-71
2022/02/21 01:48:12;;;;;;;23.50;5.15;;;6.00;99.90;;;;;;5071639;28;20490;-71
2022/02/21 01:50:38;;;;;;;14.82;3.63;;;6.00;99.90;;;;;;5071654;28;20132;-71
2022/02/21 01:53:04;;;;;;;24.02;4.90;;;6.00;99.90;;;;;;5071337;28;20032;-71
2022/02/21 01:55:30;;;;;;;18.83;4.35;;;5.90;99.90;;;;;;5070277;28;20094;-71
2022/02/21 01:57:55;;;;;;;22.13;4.47;;;5.90;99.90;;;;;;5071561;28;20371;-71
2022/02/21 02:00:21;;;;;;;25.73;5.32;;;5.90;99.90;;;;;;5071669;28;20051;-71
2022/02/21 02:02:47;;;;;;;20.20;4.90;;;6.00;99.90;;;;;;5069931;28;20409;-71
2022/02/21 02:05:14;;;;;;;23.17;5.18;;;5.90;99.90;;;;;;5071579;28;20457;-71
2022/02/21 02:07:40;;;;;;;24.52;5.00;;;5.80;99.90;;;;;;5071410;28;20517;-71
2022/02/21 02:10:07;;;;;;;22.90;4.97;;;5.90;99.90;;;;;;5070128;28;20033;-71
2022/02/21 02:12:33;;;;;;;30.23;6.13;;;5.90;99.90;;;;;;5070990;28;20407;-71
2022/02/21 02:14:58;;;;;;;27.08;5.18;;;5.90;99.90;;;;;;5071423;28;20044;-71
2022/02/21 02:17:24;;;;;;;24.70;6.05;;;5.90;99.90;;;;;;5071247;28;20040;-71
2022/02/21 02:19:50;;;;;;;28.60;6.32;;;6.00;99.90;;;;;;5071281;28;20044;-71
2022/02/21 02:22:18;;;;;;;18.30;3.97;;;6.00;99.90;;;;;;5070960;28;20405;-71
2022/02/21 02:24:46;;;;;;;19.27;4.13;;;6.00;99.90;;;;;;5072204;28;20119;-71
2022/02/21 02:27:12;;;;;;;15.98;5.18;;;6.00;99.90;;;;;;5074659;28;20498;-71
2022/02/21 02:29:39;;;;;;;26.40;4.47;;;5.90;99.90;;;;;;5074700;28;20448;-71
2022/02/21 02:32:06;;;;;;;18.73;4.80;;;5.90;99.90;;;;;;5074692;28;20036;-72
2022/02/21 02:34:32;;;;;;;22.38;5.10;;;5.90;99.90;;;;;;5074802;28;20036;-71
2022/02/21 02:36:58;;;;;;;27.63;5.50;;;5.80;99.90;;;;;;5074748;28;20115;-71
2022/02/21 02:39:25;;;;;;;26.65;6.40;;;5.80;99.90;;;;;;5073474;28;20080;-71
2022/02/21 02:41:52;;;;;;;18.98;4.93;;;5.80;99.90;;;;;;5074287;28;20490;-71
2022/02/21 02:44:18;;;;;;;20.60;4.53;;;5.70;99.90;;;;;;5074742;28;20112;-71
2022/02/21 02:46:43;;;;;;;15.25;4.63;;;5.80;99.90;;;;;;5074533;28;20116;-71
2022/02/21 02:49:09;;;;;;;21.85;4.50;;;5.80;99.90;;;;;;5074412;28;20063;-71
2022/02/21 02:51:35;;;;;;;22.25;4.47;;;5.80;99.90;;;;;;5074250;28;20041;-71
2022/02/21 02:54:00;;;;;;;18.15;3.80;;;5.70;99.90;;;;;;5074405;28;20071;-71
2022/02/21 02:56:26;;;;;;;19.63;5.68;;;5.80;99.90;;;;;;5074211;28;20072;-71
2022/02/21 02:58:52;;;;;;;29.13;4.90;;;5.70;99.90;;;;;;5074511;28;20059;-71
2022/02/21 03:01:18;;;;;;;21.10;3.97;;;5.70;99.90;;;;;;5073999;28;20032;-71
2022/02/21 03:03:43;;;;;;;15.35;3.80;;;5.70;99.90;;;;;;5074413;28;20116;-71
2022/02/21 03:06:09;;;;;;;19.00;3.97;;;5.60;99.90;;;;;;5074223;28;20171;-71
2022/02/21 03:08:34;;;;;;;12.75;3.42;;;5.70;99.90;;;;;;5073094;28;20182;-71
2022/02/21 03:11:00;;;;;;;20.00;5.43;;;5.60;99.90;;;;;;5073714;28;20040;-71
2022/02/21 03:13:25;;;;;;;38.20;6.68;;;5.60;99.90;;;;;;5074252;28;20044;-71
2022/02/21 03:15:51;;;;;;;22.10;4.68;;;5.50;99.90;;;;;;5074089;28;20040;-71
2022/02/21 03:18:16;;;;;;;23.27;5.13;;;5.60;99.90;;;;;;5074084;28;20047;-71
2022/02/21 03:20:42;;;;;;;21.77;3.92;;;5.50;99.90;;;;;;5073989;28;20089;-71
2022/02/21 03:23:07;;;;;;;21.05;6.50;;;5.50;99.90;;;;;;5073668;28;20086;-71
2022/02/21 03:25:33;;;;;;;23.52;4.90;;;5.50;99.90;;;;;;5096212;22;20033;-72
2022/02/21 03:27:58;;;;;;;21.20;5.15;;;5.50;99.90;;;;;;5072707;28;20417;-72
2022/02/21 03:30:24;;;;;;;20.92;4.78;;;5.60;99.90;;;;;;5071064;28;20578;-71
2022/02/21 03:32:51;;;;;;;24.90;5.95;;;5.50;99.90;;;;;;5072672;28;20454;-71
2022/02/21 03:35:17;;;;;;;25.25;5.43;;;5.60;99.90;;;;;;5072696;28;20040;-71
2022/02/21 03:37:43;;;;;;;29.02;4.97;;;5.60;99.90;;;;;;5072192;28;20105;-71
2022/02/21 03:40:09;;;;;;;20.50;4.57;;;5.60;99.90;;;;;;5072475;28;20044;-71
2022/02/21 03:42:34;;;;;;;22.45;5.30;;;5.60;99.90;;;;;;5073500;28;20454;-71
2022/02/21 03:45:00;;;;;;;29.27;6.38;;;5.70;99.90;;;;;;5074142;28;20166;-71
2022/02/21 03:47:26;;;;;;;24.98;5.32;;;5.60;99.90;;;;;;5072590;28;20086;-71
2022/02/21 03:49:52;;;;;;;21.02;4.88;;;5.60;99.90;;;;;;5073511;28;20079;-72
2022/02/21 03:52:17;;;;;;;24.48;5.50;;;5.60;99.90;;;;;;5071825;28;20039;-71
2022/02/21 03:54:43;;;;;;;31.63;4.50;;;5.50;99.90;;;;;;5055390;28;20040;-71
2022/02/21 03:57:09;;;;;;;21.33;5.10;;;5.50;99.90;;;;;;5073205;28;20445;-71
2022/02/21 03:59:34;;;;;;;23.65;6.63;;;5.40;99.90;;;;;;5072090;28;20040;-72
2022/02/21 04:02:00;;;;;;;23.40;5.55;;;5.40;99.90;;;;;;5071938;28;20048;-71
2022/02/21 04:04:26;;;;;;;28.40;4.97;;;5.50;99.90;;;;;;5073347;28;20037;-71
2022/02/21 04:06:51;;;;;;;26.10;4.60;;;5.50;99.90;;;;;;5071997;28;20113;-71
2022/02/21 04:09:17;;;;;;;22.90;6.60;;;5.30;99.90;;;;;;5072998;28;20051;-71
2022/02/21 04:11:42;;;;;;;24.42;5.68;;;5.30;99.90;;;;;;5072905;28;20041;-72
2022/02/21 04:14:08;;;;;;;19.88;4.55;;;5.30;99.90;;;;;;5071828;28;20127;-71
2022/02/21 04:16:34;;;;;;;18.58;4.18;;;5.20;99.90;;;;;;5072872;28;20063;-71
2022/02/21 04:19:02;;;;;;;18.50;3.15;;;4.90;99.90;;;;;;5055132;28;20036;-72
2022/02/21 04:21:29;;;;;;;15.88;3.85;;;4.50;99.90;;;;;;5072946;28;20116;-71
2022/02/21 04:23:54;;;;;;;16.42;4.72;;;4.40;99.90;;;;;;5073046;28;20036;-71
2022/02/21 04:26:20;;;;;;;23.95;5.55;;;4.40;99.90;;;;;;5071202;28;20033;-71
2022/02/21 04:28:45;;;;;;;26.20;5.10;;;4.30;99.90;;;;;;5071718;28;20064;-71
2022/02/21 04:31:14;;;;;;;19.20;4.47;;;4.40;99.90;;;;;;5071180;28;20048;-73
2022/02/21 04:33:39;;;;;;;21.83;4.88;;;4.50;99.90;;;;;;5072127;28;20041;-73
2022/02/21 04:36:05;;;;;;;21.70;5.63;;;4.40;99.90;;;;;;5071765;28;20036;-73
2022/02/21 04:38:31;;;;;;;24.30;5.15;;;4.50;99.90;;;;;;5071717;28;20071;-73
2022/02/21 04:40:56;;;;;;;16.77;4.63;;;4.60;99.90;;;;;;5072611;28;20120;-73
2022/02/21 04:43:23;;;;;;;27.40;4.93;;;4.70;99.90;;;;;;5071485;28;20379;-73
2022/02/21 04:45:54;;;;;;;20.38;4.15;;;4.80;99.90;;;;;;5071474;28;20383;-73
2022/02/21 04:48:21;;;;;;;31.20;4.75;;;4.80;99.90;;;;;;5054765;28;20586;-73
2022/02/21 04:50:46;;;;;;;25.10;4.50;;;4.80;99.90;;;;;;5071471;28;20119;-73
2022/02/21 04:53:12;;;;;;;28.30;5.55;;;4.80;99.90;;;;;;5072483;28;20091;-73
2022/02/21 04:55:37;;;;;;;27.55;5.13;;;5.00;99.90;;;;;;5070845;28;20066;-73
2022/02/21 04:58:03;;;;;;;18.55;3.90;;;4.90;99.90;;;;;;5070853;28;20036;-73
2022/02/21 05:00:29;;;;;;;23.52;4.88;;;5.00;99.90;;;;;;5070969;28;20044;-73
2022/02/21 05:02:54;;;;;;;20.60;4.32;;;4.90;99.90;;;;;;5070673;28;20140;-74
2022/02/21 05:05:20;;;;;;;12.48;4.18;;;5.00;99.90;;;;;;5070836;28;20047;-74
2022/02/21 05:07:46;;;;;;;17.88;3.75;;;4.90;99.90;;;;;;5054171;28;20040;-72
2022/02/21 05:10:12;;;;;;;18.88;4.20;;;4.90;99.90;;;;;;5070797;28;20037;-73
2022/02/21 05:12:38;;;;;;;24.95;4.50;;;5.00;99.90;;;;;;5070594;28;20123;-72
2022/02/21 05:15:06;;;;;;;20.23;5.80;;;4.80;99.90;;;;;;5054713;28;20029;-73
2022/02/21 05:17:32;;;;;;;23.48;4.63;;;4.60;99.90;;;;;;5070903;28;20459;-72
2022/02/21 05:19:57;;;;;;;23.00;4.38;;;4.60;99.90;;;;;;5070721;28;20044;-72
2022/02/21 05:22:23;;;;;;;23.73;3.97;;;4.60;99.90;;;;;;5070273;28;20413;-72
2022/02/21 05:24:50;;;;;;;18.65;4.70;;;4.50;99.90;;;;;;5070593;28;20044;-72
2022/02/21 05:27:16;;;;;;;19.63;5.57;;;4.50;99.90;;;;;;5070399;28;20055;-73
2022/02/21 05:29:41;;;;;;;29.67;5.90;;;4.60;99.90;;;;;;5070637;28;20037;-73
2022/02/21 05:32:10;;;;;;;15.18;3.75;;;4.60;99.90;;;;;;5053620;28;20509;-72
2022/02/21 05:34:38;;;;;;;14.90;3.75;;;4.70;99.90;;;;;;5053723;28;20044;-72
2022/02/21 05:37:07;;;;;;;28.45;5.45;;;4.80;99.90;;;;;;5070640;28;20028;-74
2022/02/21 05:39:33;;;;;;;19.05;6.22;;;4.90;99.90;;;;;;5070387;28;20051;-72
2022/02/21 05:41:59;;;;;;;17.02;3.70;;;4.90;99.90;;;;;;5070399;28;20084;-72
2022/02/21 05:44:25;;;;;;;26.33;5.60;;;4.90;99.90;;;;;;5070470;28;20082;-73
2022/02/21 05:46:50;;;;;;;18.38;4.20;;;4.90;99.90;;;;;;5070324;28;20044;-73
2022/02/21 05:49:16;;;;;;;17.52;4.07;;;5.00;99.90;;;;;;5070801;28;20520;-73
2022/02/21 05:51:41;;;;;;;22.20;4.75;;;5.00;99.90;;;;;;5070457;28;20044;-73
2022/02/21 05:54:07;;;;;;;18.02;4.53;;;5.00;99.90;;;;;;5070705;28;20036;-72
2022/02/21 05:56:33;;;;;;;16.80;4.05;;;5.10;99.90;;;;;;5070341;28;20148;-73
2022/02/21 05:58:59;;;;;;;16.38;4.15;;;5.00;99.90;;;;;;5072160;28;20073;-72
2022/02/21 06:01:25;;;;;;;20.95;3.90;;;5.10;99.90;;;;;;5075513;28;20052;-72
2022/02/21 06:03:51;;;;;;;18.02;4.35;;;5.20;99.90;;;;;;5075729;28;20044;-72
2022/02/21 06:06:16;;;;;;;12.23;3.58;;;5.10;99.90;;;;;;5074708;28;20035;-72
2022/02/21 06:08:42;;;;;;;22.63;4.38;;;5.10;99.90;;;;;;5074918;28;20093;-72
2022/02/21 06:11:08;;;;;;;18.27;4.72;;;5.10;99.90;;;;;;5067342;28;20032;-72
2022/02/21 06:13:33;;;;;;;25.38;5.55;;;5.10;99.90;;;;;;5060004;28;20443;-72
2022/02/21 06:16:00;;;;;;;24.17;4.65;;;5.10;99.90;;;;;;5055886;28;20486;-72
2022/02/21 06:18:26;;;;;;;14.18;3.70;;;5.20;99.90;;;;;;5054509;28;20037;-72
2022/02/21 06:20:52;;;;;;;25.60;5.05;;;5.20;99.90;;;;;;5055678;28;20094;-72
2022/02/21 06:23:18;;;;;;;20.20;4.43;;;5.10;99.90;;;;;;5059574;28;20494;-72
2022/02/21 06:25:44;;;;;;;25.90;5.03;;;4.90;99.90;;;;;;5054020;28;20079;-72
2022/02/21 06:28:11;;;;;;;22.52;6.07;;;4.80;99.90;;;;;;5055607;28;20037;-72
2022/02/21 06:30:37;;;;;;;25.17;4.45;;;4.80;99.90;;;;;;5054246;28;20040;-72
2022/02/21 06:33:03;;;;;;;27.55;5.43;;;4.80;99.90;;;;;;5055299;28;20045;-72
2022/02/21 06:35:29;;;;;;;18.08;4.18;;;4.70;99.90;;;;;;5055525;28;20282;-72
2022/02/21 06:37:56;;;;;;;18.92;4.40;;;4.70;99.90;;;;;;5055527;28;20040;-72
2022/02/21 06:40:23;;;;;;;22.65;3.90;;;4.80;99.90;;;;;;5053951;28;20055;-73
2022/02/21 06:42:48;;;;;;;17.35;5.43;;;4.90;99.90;;;;;;5053587;28;20052;-72
2022/02/21 06:45:14;;;;;;;20.98;4.63;;;4.80;99.90;;;;;;5054200;28;20033;-73
2022/02/21 06:47:40;;;;;;;19.35;4.70;;;4.80;99.90;;;;;;5053722;28;20033;-72
2022/02/21 06:50:07;;;;;;;20.50;3.58;;;4.90;99.90;;;;;;5053387;28;20509;-73
2022/02/21 06:52:33;;;;;;;19.92;4.70;;;4.90;99.90;;;;;;5053579;28;20029;-73
2022/02/21 06:55:00;;;;;;;20.17;4.07;;;5.00;99.90;;;;;;5053899;28;20448;-73
2022/02/21 06:57:26;;;;;;;19.90;6.25;;;5.00;99.90;;;;;;5053327;28;20497;-73
2022/02/21 06:59:52;;;;;;;17.38;4.40;;;5.00;99.90;;;;;;5054714;28;20052;-73
2022/02/21 07:02:18;;;;;;;16.38;3.88;;;4.90;99.90;;;;;;5052854;28;20494;-72
2022/02/21 07:04:43;;;;;;;14.43;3.30;;;5.00;99.90;;;;;;5053252;28;20055;-73
2022/02/21 07:07:09;;;;;;;17.65;4.55;;;5.00;99.90;;;;;;5053291;28;20049;-73
2022/02/21 07:09:34;;;;;;;19.95;4.90;;;5.00;99.90;;;;;;5053014;28;20482;-73
2022/02/21 07:12:00;;;;;;;17.35;4.32;;;5.00;99.90;;;;;;5051572;28;20055;-72
2022/02/21 07:14:26;;;;;;;24.00;4.93;;;5.10;99.90;;;;;;5053345;28;20037;-74
2022/02/21 07:16:52;;;;;;;19.20;4.72;;;5.10;99.90;;;;;;5053206;28;20076;-73
2022/02/21 07:19:17;;;;;;;24.63;5.50;;;5.10;99.90;;;;;;5053159;28;20044;-73
2022/02/21 07:21:43;;;;;;;18.30;4.35;;;5.10;99.90;;;;;;5052439;28;20040;-73
2022/02/21 07:24:09;;;;;;;18.75;5.45;;;5.10;99.90;;;;;;5052773;28;20186;-72
2022/02/21 07:26:35;;;;;;;19.55;4.63;;;5.10;99.90;;;;;;5053902;28;20037;-72
2022/02/21 07:29:01;;;;;;;23.63;4.97;;;5.20;99.90;;;;;;5052661;28;20044;-72
2022/02/21 07:31:26;;;;;;;21.08;4.43;;;5.20;99.90;;;;;;5052357;28;20049;-72
2022/02/21 07:33:52;;;;;;;30.02;5.68;;;5.10;99.90;;;;;;5052778;28;20063;-72
2022/02/21 07:36:17;;;;;;;17.20;3.92;;;5.20;99.90;;;;;;5052906;28;20537;-72
2022/02/21 07:38:43;;;;;;;26.40;5.13;;;5.20;99.90;;;;;;5052654;28;20044;-72
2022/02/21 07:41:09;;;;;;;19.75;4.53;;;5.20;99.90;;;;;;5052306;28;20037;-72
2022/02/21 07:43:34;;;;;;;16.58;4.13;;;5.30;99.90;;;;;;5052737;28;20120;-73
2022/02/21 07:46:00;;;;;;;25.10;4.78;;;5.30;99.90;;;;;;5053357;28;20065;-72
2022/02/21 07:48:26;;;;;;;25.77;5.38;;;5.30;99.90;;;;;;5052582;28;20124;-72
2022/02/21 07:50:55;;;;;;;23.75;5.90;;;5.20;99.90;;;;;;5052486;28;20163;-72
2022/02/21 07:53:24;;;;;;;19.48;5.70;;;5.30;99.90;;;;;;5052196;28;20115;-72
2022/02/21 07:55:51;;;;;;;15.65;4.35;;;5.30;99.90;;;;;;5053446;28;20040;-72
2022/02/21 07:58:17;;;;;;;29.63;6.55;;;5.30;99.90;;;;;;5052003;28;20062;-72
2022/02/21 08:00:42;;;;;;;24.92;4.63;;;5.30;99.90;;;;;;5052086;28;20740;-72
2022/02/21 08:03:08;;;;;;;17.67;5.32;;;5.30;99.90;;;;;;5051980;28;20044;-72
2022/02/21 08:05:38;;;;;;;21.50;5.28;;;5.30;99.90;;;;;;5052245;28;20466;-72
2022/02/21 08:08:07;;;;;;;21.20;4.68;;;5.30;99.90;;;;;;5052486;28;20041;-72
2022/02/21 08:10:33;;;;;;;24.98;5.15;;;5.30;99.90;;;;;;5052093;28;20041;-72
2022/02/21 08:12:59;;;;;;;25.35;6.50;;;5.40;99.90;;;;;;5052796;28;20049;-72
2022/02/21 08:15:25;;;;;;;15.05;3.80;;;5.30;99.90;;;;;;5051778;28;20414;-72
2022/02/21 08:17:50;;;;;;;24.15;5.72;;;5.30;99.90;;;;;;5052204;28;20029;-72
2022/02/21 08:20:19;;;;;;;19.85;4.35;;;5.40;99.90;;;;;;5053281;28;20102;-73
2022/02/21 08:22:45;;;;;;;23.80;4.15;;;5.40;99.90;;;;;;5052635;28;20408;-73
2022/02/21 08:25:12;;;;;;;21.60;4.90;;;5.40;99.90;;;;;;5053052;28;20102;-74
2022/02/21 08:27:39;;;;;;;22.48;5.05;;;5.40;99.90;;;;;;5051973;28;20043;-73
2022/02/21 08:30:08;;;;;;;26.60;7.10;;;5.30;99.90;;;;;;5051642;28;20395;-73
2022/02/21 08:32:34;;;;;;;27.55;5.70;;;5.30;99.90;;;;;;5051708;28;20066;-73
2022/02/21 08:34:59;;;;;;;29.55;7.15;;;5.30;99.90;;;;;;5052212;28;20494;-73
2022/02/21 08:37:25;;;;;;;20.33;4.80;;;5.20;99.90;;;;;;5052239;28;20482;-73
2022/02/21 08:39:50;;;;;;;20.23;5.60;;;5.20;99.90;;;;;;5051945;28;20529;-73
2022/02/21 08:42:16;;;;;;;28.08;4.88;;;5.10;99.90;;;;;;5051316;28;20041;-73
2022/02/21 08:44:41;;;;;;;25.77;5.10;;;5.10;99.90;;;;;;5052788;28;20044;-73
2022/02/21 08:47:07;;;;;;;24.60;4.65;;;5.00;99.90;;;;;;5051348;28;20041;-73
2022/02/21 08:49:33;;;;;;;20.45;5.57;;;4.90;99.90;;;;;;5052441;28;20082;-73
2022/02/21 08:51:59;;;;;;;25.48;4.95;;;4.80;99.90;;;;;;5050777;28;20048;-73
2022/02/21 08:54:25;;;;;;;37.67;4.90;;;4.70;99.90;;;;;;5051095;28;20521;-73
2022/02/21 08:56:51;;;;;;;24.65;4.30;;;4.70;99.90;;;;;;5051032;28;20044;-74
2022/02/21 08:59:18;;;;;;;24.38;4.60;;;4.70;99.90;;;;;;5051155;28;20045;-73
2022/02/21 09:01:47;;;;;;;17.00;3.67;;;4.60;99.90;;;;;;5050817;28;20045;-73
2022/02/21 09:04:13;;;;;;;17.27;3.72;;;4.50;99.90;;;;;;5034133;28;20049;-74
2022/02/21 09:06:39;;;;;;;11.07;3.72;;;4.50;99.90;;;;;;5050826;28;20049;-74
2022/02/21 09:09:05;;;;;;;12.90;3.60;;;4.40;99.90;;;;;;5051066;28;20072;-73
2022/02/21 09:11:31;;;;;;;10.38;2.17;;;4.30;99.90;;;;;;5052062;28;20446;-73
2022/02/21 09:13:56;;;;;;;8.77;1.50;;;4.10;99.90;;;;;;5050828;28;20048;-73
2022/02/21 09:16:22;;;;;;;8.20;1.88;;;4.00;99.90;;;;;;5050895;28;20029;-73
2022/02/21 09:18:48;;;;;;;4.55;1.35;;;3.80;99.90;;;;;;5052018;28;20040;-73
2022/02/21 09:21:13;;;;;;;7.57;1.15;;;3.70;99.90;;;;;;5050191;28;20486;-72
2022/02/21 09:23:39;;;;;;;8.80;2.33;;;3.50;99.90;;;;;;5050792;28;20049;-72
2022/02/21 09:26:05;;;;;;;5.15;1.25;;;3.50;99.90;;;;;;5060630;22;20033;-71
2022/02/21 09:28:31;;;;;;;7.43;1.45;;;3.40;99.90;;;;;;5071883;28;20102;-71
2022/02/21 09:30:56;;;;;;;7.55;1.83;;;3.40;99.90;;;;;;5070933;28;20436;-71
2022/02/21 09:33:23;;;;;;;4.53;1.50;;;3.40;99.90;;;;;;5071750;28;20037;-70
2022/02/21 09:35:49;;;;;;;7.22;1.35;;;3.40;99.90;;;;;;5070972;28;20044;-71
2022/02/21 09:38:15;;;;;;;8.38;2.38;;;3.40;99.90;;;;;;5071594;28;20052;-71
2022/02/21 09:40:42;;;;;;;6.07;1.45;;;3.40;99.90;;;;;;5071793;28;20040;-71
2022/02/21 09:43:08;;;;;;;5.15;1.40;;;3.50;99.90;;;;;;5071730;28;20076;-71
2022/02/21 09:45:35;;;;;;;3.88;0.98;;;3.40;99.90;;;;;;5071757;28;20072;-71
2022/02/21 09:48:02;;;;;;;5.70;1.45;;;3.40;99.90;;;;;;5071604;28;20049;-71
2022/02/21 09:50:28;;;;;;;4.28;1.23;;;3.40;99.90;;;;;;5071848;28;20041;-71
2022/02/21 09:53:00;;;;;;;5.53;1.00;;;3.40;99.90;;;;;;5071171;28;20040;-71
2022/02/21 09:55:27;;;;;;;4.00;1.27;;;3.50;99.90;;;;;;5071792;28;20032;-71
2022/02/21 09:57:53;;;;;;;7.20;1.20;;;3.50;99.90;;;;;;5070359;28;20072;-71
2022/02/21 10:00:19;;;;;;;4.25;1.05;;;3.50;99.90;;;;;;5071652;28;20410;-71
2022/02/21 10:02:47;;;;;;;2.10;0.60;;;3.50;99.90;;;;;;5071098;28;20045;-71
2022/02/21 10:05:25;;;;;;;1.70;0.80;;;3.50;99.90;;;;;;5069544;28;20125;-71
2022/02/21 10:07:51;;;;;;;2.97;1.52;;;3.50;99.90;;;;;;5069416;28;20555;-71
2022/02/21 10:10:20;;;;;;;5.93;2.35;;;3.50;99.90;;;;;;5068190;28;20037;-71
2022/02/21 10:12:50;;;;;;;3.05;1.13;;;3.50;99.90;;;;;;5070288;28;20040;-71
2022/02/21 10:15:33;;;;;;;3.22;0.57;;;3.50;99.90;;;;;;5069991;28;20107;-70
2022/02/21 10:18:18;;;;;;;2.80;0.73;;;3.50;99.90;;;;;;5069818;28;20040;-71
2022/02/21 10:21:01;;;;;;;2.78;0.70;;;3.40;99.90;;;;;;5071264;28;20044;-71
2022/02/21 10:23:30;;;;;;;1.48;0.57;;;3.40;99.90;;;;;;5071348;28;20079;-71
2022/02/21 10:26:01;;;;;;;0.40;0.25;;;3.30;99.90;;;;;;5071076;28;20413;-71
2022/02/21 10:28:32;;;;;;;1.08;0.60;;;3.30;99.90;;;;;;5071173;28;20051;-71
2022/02/21 10:31:14;;;;;;;1.05;0.47;;;3.20;99.90;;;;;;5071219;28;20048;-71
2022/02/21 10:33:58;;;;;;;1.70;0.60;;;3.10;99.90;;;;;;5071445;28;20032;-71
2022/02/21 10:36:37;;;;;;;1.65;0.55;;;3.10;99.90;;;;;;5070024;28;20044;-71
2022/02/21 10:39:09;;;;;;;1.48;0.55;;;2.90;99.90;;;;;;5071296;28;20040;-71
2022/02/21 10:41:41;;;;;;;2.13;0.52;;;2.80;99.90;;;;;;5069550;28;20055;-71
2022/02/21 10:44:22;;;;;;;1.58;0.50;;;2.70;99.90;;;;;;5070063;28;20044;-71
2022/02/21 10:47:17;;;;;;;2.15;0.50;;;2.70;99.90;;;;;;5073649;28;20067;-71
2022/02/21 10:50:03;;;;;;;1.63;0.70;;;2.50;99.90;;;;;;5073464;28;20119;-71
2022/02/21 10:52:41;;;;;;;3.05;0.70;;;2.50;99.90;;;;;;5073045;28;20071;-71
2022/02/21 10:55:09;;;;;;;1.08;0.50;;;2.50;99.90;;;;;;5074700;28;20122;-71
2022/02/21 10:57:43;;;;;;;1.35;0.50;;;2.50;99.90;;;;;;5074372;28;20068;-72
2022/02/21 11:00:10;;;;;;;1.50;0.50;;;2.50;99.90;;;;;;5074321;28;20501;-71
2022/02/21 11:02:39;;;;;;;1.92;0.90;;;2.50;99.90;;;;;;5073010;28;20098;-70
2022/02/21 11:05:08;;;;;;;2.33;0.70;;;2.40;99.90;;;;;;5074279;28;20545;-70
2022/02/21 11:07:35;;;;;;;2.70;1.58;;;2.40;99.90;;;;;;5074166;28;20516;-70
2022/02/21 11:10:03;;;;;;;1.70;0.70;;;2.30;99.90;;;;;;5074343;28;20446;-70
2022/02/21 11:12:34;;;;;;;3.60;0.82;;;2.30;99.90;;;;;;5074090;28;20029;-70
2022/02/21 11:15:01;;;;;;;2.13;0.85;;;2.30;99.90;;;;;;5074307;28;20064;-70
2022/02/21 11:17:28;;;;;;;4.25;1.08;;;2.40;99.90;;;;;;5074076;28;20406;-69
2022/02/21 11:19:54;;;;;;;2.92;0.90;;;2.30;99.90;;;;;;5074159;28;20120;-69
2022/02/21 11:22:19;;;;;;;6.32;1.17;;;2.40;99.90;;;;;;5073734;28;20604;-70
2022/02/21 11:24:54;;;;;;;4.03;1.00;;;2.50;99.90;;;;;;5072045;28;20055;-70
2022/02/21 11:27:34;;;;;;;2.60;1.25;;;2.50;99.90;;;;;;5073398;28;20043;-70
2022/02/21 11:30:16;;;;;;;5.72;1.42;;;2.50;99.90;;;;;;5073575;28;20452;-70
2022/02/21 11:33:09;;;;;;;3.15;1.25;;;2.50;99.90;;;;;;5071996;28;20073;-70
2022/02/21 11:35:37;;;;;;;2.25;0.90;;;2.60;99.90;;;;;;5073747;28;20040;-71
2022/02/21 11:38:18;;;;;;;5.35;1.02;;;2.60;99.90;;;;;;5073516;28;20064;-71
2022/02/21 11:40:59;;;;;;;4.70;1.17;;;2.60;99.90;;;;;;5073460;28;20074;-70
2022/02/21 11:43:29;;;;;;;2.22;1.17;;;2.70;99.90;;;;;;5073102;28;20455;-70
2022/02/21 11:45:56;;;;;;;4.30;1.33;;;2.70;99.90;;;;;;5073442;28;20454;-70
2022/02/21 11:48:21;;;;;;;3.80;1.27;;;2.80;99.90;;;;;;5073404;28;20100;-70
2022/02/21 11:50:47;;;;;;;2.92;1.25;;;2.90;99.90;;;;;;5073157;28;20115;-71
2022/02/21 11:53:28;;;;;;;4.07;1.70;;;2.90;99.90;;;;;;5073193;28;20115;-71
2022/02/21 11:55:54;;;;;;;8.77;2.08;;;3.00;99.90;;;;;;5073135;28;20485;-70
2022/02/21 11:58:22;;;;;;;7.15;2.10;;;3.00;99.90;;;;;;5072753;28;20037;-70
2022/02/21 12:00:50;;;;;;;11.35;3.05;;;3.10;99.90;;;;;;5073151;28;20044;-71
2022/02/21 12:03:18;;;;;;;10.63;2.72;;;3.20;99.90;;;;;;5073181;28;20127;-70
2022/02/21 12:05:49;;;;;;;9.98;2.90;;;3.30;99.90;;;;;;5073147;28;20036;-70
2022/02/21 12:08:27;;;;;;;12.77;2.83;;;3.50;99.90;;;;;;5073002;28;20540;-70
2022/02/21 12:11:19;;;;;;;12.57;3.38;;;3.60;99.90;;;;;;5072896;28;20044;-70
2022/02/21 12:13:45;;;;;;;11.90;4.53;;;3.70;99.90;;;;;;5065982;28;20044;-70
2022/02/21 12:16:13;;;;;;;14.90;3.45;;;3.80;99.90;;;;;;5072750;28;20032;-70
2022/02/21 12:18:41;;;;;;;12.40;3.53;;;3.90;99.90;;;;;;5071513;28;20044;-70
2022/02/21 12:21:28;;;;;;;24.17;5.13;;;4.00;99.90;;;;;;5071179;28;20571;-70
2022/02/21 12:24:00;;;;;;;29.48;6.13;;;4.10;99.90;;;;;;5073006;28;20040;-70
2022/02/21 12:26:35;;;;;;;36.08;6.75;;;4.30;99.90;;;;;;5072564;28;20041;-70
2022/02/21 12:29:17;;;;;;;29.73;7.18;;;4.80;99.90;;;;;;5072519;28;20068;-70
2022/02/21 12:31:43;;;;;;;41.05;9.57;;;5.10;99.90;;;;;;5072705;28;20128;-70
2022/02/21 12:34:10;;;;;;;46.13;9.10;;;5.30;99.90;;;;;;5071565;28;20123;-70
2022/02/21 12:36:37;;;;;;;59.25;10.15;;;5.50;99.90;;;;;;5071168;28;20128;-70
2022/02/21 12:39:05;;;;;;;52.03;10.15;;;5.70;99.90;;;;;;5072449;28;20041;-70
2022/02/21 12:41:34;;;;;;;58.75;9.80;;;5.90;99.90;;;;;;5072005;28;20089;-70
2022/02/21 12:44:02;;;;;;;55.97;9.32;;;6.00;99.90;;;;;;5072471;28;20043;-70
2022/02/21 12:46:43;;;;;;;51.47;10.18;;;6.10;99.90;;;;;;5072439;28;20036;-70
2022/02/21 12:49:21;;;;;;;52.92;9.05;;;6.20;99.90;;;;;;5071223;28;20032;-70